createdAt,value
2019-02-09T00:01:50.847Z,84.22
2019-02-09T00:06:52.807Z,84.30
2019-02-09T00:11:54.383Z,84.23
2019-02-09T00:16:55.925Z,84.28
2019-02-09T00:21:57.546Z,84.08
2019-02-09T00:26:59.661Z,83.99
2019-02-09T00:32:01.238Z,83.91
2019-02-09T00:37:02.738Z,83.75
2019-02-09T00:42:04.296Z,83.99
2019-02-09T00:47:05.817Z,84.02
2019-02-09T00:52:07.440Z,84.36
2019-02-09T00:57:08.999Z,83.84
2019-02-09T01:02:10.568Z,83.94
2019-02-09T01:07:12.266Z,83.84
2019-02-09T01:12:14.310Z,84.22
2019-02-09T01:17:15.958Z,83.86
2019-02-09T01:22:17.466Z,83.77
2019-02-09T01:27:19.068Z,84.00
2019-02-09T01:32:20.676Z,83.89
2019-02-09T01:37:22.212Z,83.56
2019-02-09T01:42:23.844Z,83.20
2019-02-09T01:47:25.472Z,83.11
2019-02-09T01:52:27.059Z,82.96
2019-02-09T01:57:29.148Z,83.15
2019-02-09T02:02:30.812Z,83.19
2019-02-09T02:07:32.389Z,83.01
2019-02-09T02:12:34.311Z,83.48
2019-02-09T02:17:35.833Z,83.81
2019-02-09T02:22:37.476Z,84.19
2019-02-09T02:27:39.026Z,84.77
2019-02-09T02:32:40.578Z,85.08
2019-02-09T02:37:42.220Z,85.15
2019-02-09T02:42:43.728Z,85.21
2019-02-09T02:47:45.289Z,84.79
2019-02-09T02:52:46.787Z,85.01
2019-02-09T02:57:49.800Z,85.18
2019-02-09T03:02:51.362Z,85.35
2019-02-09T03:07:53.255Z,85.38
2019-02-09T03:12:54.776Z,85.75
2019-02-09T03:17:56.317Z,85.54
2019-02-09T03:22:57.845Z,85.33
2019-02-09T03:27:59.375Z,85.26
2019-02-09T03:33:00.923Z,85.17
2019-02-09T03:38:02.434Z,84.90
2019-02-09T03:43:04.069Z,84.85
2019-02-09T03:48:05.618Z,84.44
2019-02-09T03:53:07.098Z,84.04
2019-02-09T03:58:08.641Z,84.03
2019-02-09T04:03:10.188Z,84.07
2019-02-09T04:08:11.732Z,83.38
2019-02-09T04:13:13.628Z,84.17
2019-02-09T04:18:15.439Z,84.30
2019-02-09T04:23:16.965Z,84.04
2019-02-09T04:28:19.254Z,83.59
2019-02-09T04:33:20.790Z,83.68
2019-02-09T04:38:22.344Z,83.82
2019-02-09T04:43:23.912Z,83.36
2019-02-09T04:48:26.381Z,83.21
2019-02-09T04:53:27.907Z,83.60
2019-02-09T04:58:29.526Z,83.27
2019-02-09T05:03:31.092Z,83.13
2019-02-09T05:08:32.701Z,82.95
2019-02-09T05:13:34.235Z,83.30
2019-02-09T05:18:35.781Z,83.77
2019-02-09T05:23:37.320Z,83.96
2019-02-09T05:28:38.901Z,84.51
2019-02-09T05:33:40.482Z,84.81
2019-02-09T05:38:42.011Z,84.70
2019-02-09T05:43:43.552Z,84.69
2019-02-09T05:48:45.188Z,84.89
2019-02-09T05:53:46.751Z,84.23
2019-02-09T05:58:48.444Z,84.82
2019-02-09T06:03:49.991Z,84.29
2019-02-09T06:08:51.575Z,83.47
2019-02-09T06:13:53.101Z,83.47
2019-02-09T06:18:54.645Z,83.50
2019-02-09T06:23:56.182Z,84.15
2019-02-09T06:28:58.107Z,84.29
2019-02-09T06:33:59.649Z,83.84
2019-02-09T06:39:01.167Z,83.50
2019-02-09T06:44:02.733Z,84.25
2019-02-09T06:49:04.305Z,84.36
2019-02-09T06:54:06.185Z,84.36
2019-02-09T06:59:07.724Z,84.53
2019-02-09T07:04:09.313Z,84.56
2019-02-09T07:09:11.145Z,84.36
2019-02-09T07:14:12.680Z,84.72
2019-02-09T07:19:14.316Z,84.74
2019-02-09T07:24:16.285Z,84.39
2019-02-09T07:29:17.855Z,83.78
2019-02-09T07:34:19.739Z,83.74
2019-02-09T07:39:21.303Z,84.10
2019-02-09T07:44:23.889Z,83.88
2019-02-09T07:49:25.957Z,83.84
2019-02-09T07:54:27.583Z,83.94
2019-02-09T07:59:29.171Z,83.70
2019-02-09T08:04:30.733Z,83.64
2019-02-09T08:09:33.181Z,83.29
2019-02-09T08:14:34.758Z,83.16
2019-02-09T08:19:41.841Z,83.00
2019-02-09T08:24:45.517Z,82.49
2019-02-09T08:29:47.025Z,82.61
2019-02-09T08:34:48.552Z,82.61
2019-02-09T08:39:50.440Z,82.62
2019-02-09T08:44:52.009Z,82.68
2019-02-09T08:49:53.672Z,82.89
2019-02-09T08:54:55.335Z,82.33
2019-02-09T08:59:56.887Z,82.49
2019-02-09T09:04:58.489Z,82.27
2019-02-09T09:10:00.008Z,81.75
2019-02-09T09:15:01.625Z,81.04
2019-02-09T09:20:06.753Z,80.13
2019-02-09T09:25:08.325Z,80.17
2019-02-09T09:30:12.143Z,80.47
2019-02-09T09:35:14.056Z,80.34
2019-02-09T09:40:18.287Z,80.01
2019-02-09T09:45:22.217Z,79.66
2019-02-09T09:50:24.034Z,78.69
2019-02-09T09:55:26.560Z,78.92
2019-02-09T10:00:28.515Z,78.59
2019-02-09T10:05:30.582Z,77.92
2019-02-09T10:10:32.529Z,77.71
2019-02-09T10:15:35.550Z,77.26
2019-02-09T10:20:38.224Z,77.63
2019-02-09T10:25:39.821Z,76.39
2019-02-09T10:30:41.380Z,76.37
2019-02-09T10:35:43.030Z,76.19
2019-02-09T10:40:44.966Z,76.20
2019-02-09T10:45:46.507Z,75.21
2019-02-09T10:50:48.091Z,75.14
2019-02-09T10:55:49.806Z,75.26
2019-02-09T11:00:57.655Z,75.72
2019-02-09T11:05:59.359Z,76.17
2019-02-09T11:11:00.961Z,76.00
2019-02-09T11:16:02.638Z,76.59
2019-02-09T11:21:04.530Z,75.30
2019-02-09T11:26:06.063Z,75.58
2019-02-09T11:31:07.976Z,75.25
2019-02-09T11:36:09.513Z,72.86
2019-02-09T11:41:26.312Z,75.44
2019-02-09T11:46:28.056Z,75.55
2019-02-09T11:51:29.582Z,76.31
2019-02-09T11:56:31.184Z,75.86
2019-02-09T12:01:32.762Z,75.74
2019-02-09T12:06:34.707Z,74.10
2019-02-09T12:11:36.260Z,76.31
2019-02-09T12:16:37.792Z,75.74
2019-02-09T12:21:39.347Z,77.08
2019-02-09T12:26:40.900Z,75.85
2019-02-09T12:31:42.567Z,76.06
2019-02-09T12:36:44.113Z,76.89
2019-02-09T12:41:45.678Z,77.23
2019-02-09T12:46:47.210Z,76.61
2019-02-09T12:51:48.771Z,76.22
2019-02-09T12:56:50.321Z,77.18
2019-02-09T13:01:51.865Z,78.15
2019-02-09T13:06:54.310Z,77.24
2019-02-09T13:11:55.856Z,78.15
2019-02-09T13:16:57.859Z,77.91
2019-02-09T13:21:59.545Z,77.36
2019-02-09T13:27:01.060Z,76.21
2019-02-09T13:32:03.048Z,74.41
2019-02-09T13:37:05.335Z,74.23
2019-02-09T13:42:06.902Z,75.23
2019-02-09T13:47:08.485Z,70.63
2019-02-09T13:52:10.699Z,73.69
2019-02-09T13:57:12.246Z,74.71
2019-02-09T14:02:13.831Z,72.37
2019-02-09T14:07:15.394Z,73.12
2019-02-09T14:12:17.083Z,73.08
2019-02-09T14:17:18.604Z,73.80
2019-02-09T14:22:20.156Z,72.63
2019-02-09T14:27:21.798Z,72.37
2019-02-09T14:32:23.318Z,70.18
2019-02-09T14:37:24.994Z,70.52
2019-02-09T14:42:26.568Z,70.79
2019-02-09T14:47:28.254Z,70.62
2019-02-09T14:52:29.775Z,71.23
2019-02-09T14:57:31.361Z,71.25
2019-02-09T15:02:32.973Z,72.91
2019-02-09T15:07:34.580Z,71.95
2019-02-09T15:12:36.131Z,72.82
2019-02-09T15:17:37.697Z,74.46
2019-02-09T15:22:40.278Z,74.04
2019-02-09T15:27:41.860Z,74.93
2019-02-09T15:32:43.461Z,74.40
2019-02-09T15:37:48.000Z,74.03
2019-02-09T15:42:49.647Z,75.16
2019-02-09T15:47:51.252Z,74.96
2019-02-09T15:52:52.955Z,75.04
2019-02-09T15:57:54.563Z,75.04
2019-02-09T16:02:56.188Z,74.86
2019-02-09T16:07:57.799Z,73.62
2019-02-09T16:12:59.856Z,74.95
2019-02-09T16:18:01.346Z,76.70
2019-02-09T16:23:02.924Z,76.38
2019-02-09T16:28:04.549Z,76.28
2019-02-09T16:33:06.511Z,76.54
2019-02-09T16:38:08.143Z,76.53
2019-02-09T16:43:10.110Z,76.95
2019-02-09T16:48:12.038Z,75.96
2019-02-09T16:53:13.659Z,76.06
2019-02-09T16:58:15.216Z,76.62
2019-02-09T17:03:16.791Z,74.28
2019-02-09T17:08:18.705Z,75.99
2019-02-09T17:13:20.489Z,76.27
2019-02-09T17:18:22.086Z,76.31
2019-02-09T17:23:23.721Z,77.12
2019-02-09T17:28:25.335Z,76.70
2019-02-09T17:33:27.230Z,76.98
2019-02-09T17:38:29.145Z,76.78
2019-02-09T17:43:31.114Z,76.73
2019-02-09T17:48:32.863Z,77.11
2019-02-09T17:53:34.574Z,76.89
2019-02-09T17:58:36.229Z,76.94
2019-02-09T18:03:38.116Z,77.46
2019-02-09T18:08:41.764Z,77.45
2019-02-09T18:13:43.522Z,77.63
2019-02-09T18:18:45.120Z,77.72
2019-02-09T18:23:47.058Z,77.77
2019-02-09T18:28:48.654Z,77.69
2019-02-09T18:33:50.375Z,78.04
2019-02-09T18:38:51.950Z,77.92
2019-02-09T18:43:53.922Z,77.40
2019-02-09T18:48:55.565Z,77.49
2019-02-09T18:53:57.113Z,77.68
2019-02-09T18:58:59.166Z,78.01
2019-02-09T19:04:00.790Z,77.45
2019-02-09T19:09:06.258Z,77.43
2019-02-09T19:14:07.928Z,77.67
2019-02-09T19:19:09.492Z,77.59
2019-02-09T19:24:11.161Z,77.61
2019-02-09T19:29:12.722Z,77.48
2019-02-09T19:34:14.423Z,77.14
2019-02-09T19:39:15.940Z,77.31
2019-02-09T19:44:17.551Z,77.19
2019-02-09T19:49:19.295Z,77.29
2019-02-09T19:54:21.024Z,77.11
2019-02-09T19:59:22.942Z,77.18
2019-02-09T20:04:24.941Z,77.46
2019-02-09T20:09:27.125Z,77.42
2019-02-09T20:14:28.985Z,77.53
2019-02-09T20:19:30.712Z,77.63
2019-02-09T20:24:32.255Z,77.91
2019-02-09T20:29:34.612Z,77.73
2019-02-09T20:34:36.225Z,78.09
2019-02-09T20:39:39.484Z,78.24
2019-02-09T20:44:41.144Z,78.35
2019-02-09T20:49:42.777Z,78.31
2019-02-09T20:54:44.402Z,78.22
2019-02-09T20:59:46.020Z,78.49
2019-02-09T21:04:47.542Z,78.55
2019-02-09T21:09:49.122Z,78.50
2019-02-09T21:14:50.749Z,78.45
2019-02-09T21:19:52.276Z,78.07
2019-02-09T21:24:53.957Z,77.93
2019-02-09T21:29:55.508Z,77.86
2019-02-09T21:34:57.425Z,77.44
2019-02-09T21:39:59.571Z,77.23
2019-02-09T21:45:01.222Z,76.91
2019-02-09T21:50:03.969Z,76.92
2019-02-09T21:55:06.732Z,77.34
2019-02-09T22:00:17.271Z,77.05
2019-02-09T22:05:18.906Z,77.00
2019-02-09T22:10:20.878Z,76.91
2019-02-09T22:15:23.372Z,76.73
2019-02-09T22:20:24.999Z,76.59
2019-02-09T22:25:26.708Z,76.58
2019-02-09T22:30:28.423Z,76.63
2019-02-09T22:35:30.074Z,76.60
2019-02-09T22:40:33.016Z,76.43
2019-02-09T22:45:34.554Z,76.17
2019-02-09T22:50:39.643Z,76.55
2019-02-09T22:55:42.296Z,76.37
2019-02-09T23:01:26.992Z,76.09
2019-02-09T23:06:43.311Z,76.37
2019-02-09T23:11:44.927Z,76.72
2019-02-09T23:16:46.875Z,76.80
2019-02-09T23:21:49.314Z,77.10
2019-02-09T23:26:51.232Z,77.11
2019-02-09T23:31:53.270Z,76.81
2019-02-09T23:36:55.283Z,76.90
2019-02-09T23:41:56.875Z,77.29
2019-02-09T23:46:58.400Z,77.29
2019-02-09T23:51:59.959Z,77.38
2019-02-09T23:57:01.550Z,77.19
